createdAt,value
2022-12-01T00:01:14.548Z,9.27
2022-12-01T00:03:41.801Z,13.10
2022-12-01T00:06:17.447Z,8.63
2022-12-01T00:09:06.677Z,16.20
2022-12-01T00:11:35.420Z,11.73
2022-12-01T00:14:02.989Z,11.23
2022-12-01T00:16:30.828Z,14.17
2022-12-01T00:18:57.992Z,6.87
2022-12-01T00:21:26.330Z,10.80
2022-12-01T00:23:55.596Z,11.67
2022-12-01T00:26:23.681Z,11.07
2022-12-01T00:28:55.932Z,9.70
2022-12-01T00:31:23.457Z,9.77
2022-12-01T00:33:50.588Z,18.23
2022-12-01T00:36:17.869Z,17.67
2022-12-01T00:38:45.403Z,16.73
2022-12-01T00:41:12.328Z,16.93
2022-12-01T00:43:39.894Z,15.73
2022-12-01T00:46:06.868Z,18.63
2022-12-01T00:48:33.888Z,12.00
2022-12-01T00:51:00.806Z,17.77
2022-12-01T00:53:27.830Z,14.23
2022-12-01T00:55:54.863Z,15.13
2022-12-01T00:58:23.576Z,10.77
2022-12-01T01:00:58.263Z,16.67
2022-12-01T01:03:26.064Z,19.43
2022-12-01T01:05:53.040Z,21.63
2022-12-01T01:08:20.003Z,16.73
2022-12-01T01:10:48.237Z,16.97
2022-12-01T01:13:16.280Z,9.73
2022-12-01T01:15:43.152Z,16.23
2022-12-01T01:18:11.930Z,13.37
2022-12-01T01:20:38.801Z,20.47
2022-12-01T01:23:05.842Z,17.03
2022-12-01T01:25:33.673Z,11.80
2022-12-01T01:28:00.977Z,19.00
2022-12-01T01:30:28.064Z,13.93
2022-12-01T01:32:55.017Z,15.20
2022-12-01T01:35:21.904Z,15.50
2022-12-01T01:37:50.963Z,18.27
2022-12-01T01:40:18.568Z,10.67
2022-12-01T01:42:45.680Z,18.17
2022-12-01T01:45:25.470Z,18.57
2022-12-01T01:47:53.760Z,21.33
2022-12-01T01:50:24.281Z,22.43
2022-12-01T01:53:01.569Z,22.37
2022-12-01T01:55:33.610Z,14.40
2022-12-01T01:58:01.861Z,19.47
2022-12-01T02:00:29.370Z,16.43
2022-12-01T02:02:58.065Z,18.87
2022-12-01T02:05:29.439Z,19.93
2022-12-01T02:07:58.650Z,18.17
2022-12-01T02:10:52.715Z,17.80
2022-12-01T02:13:41.873Z,17.60
2022-12-01T02:16:37.374Z,16.73
2022-12-01T02:19:26.237Z,23.73
2022-12-01T02:22:47.187Z,17.60
2022-12-01T02:25:34.448Z,20.07
2022-12-01T02:28:13.414Z,21.17
2022-12-01T02:30:57.201Z,21.83
2022-12-01T02:33:51.519Z,16.90
2022-12-01T02:36:35.741Z,21.10
2022-12-01T02:39:28.485Z,16.83
2022-12-01T02:42:09.549Z,16.97
2022-12-01T02:44:42.137Z,18.70
2022-12-01T02:47:15.009Z,17.17
2022-12-01T02:49:48.056Z,17.73
2022-12-01T02:52:17.300Z,16.33
2022-12-01T02:54:45.831Z,16.77
2022-12-01T02:57:14.463Z,14.60
2022-12-01T02:59:45.151Z,18.73
2022-12-01T03:02:33.296Z,19.10
2022-12-01T03:05:23.162Z,11.20
2022-12-01T03:08:02.528Z,9.80
2022-12-01T03:10:51.499Z,12.20
2022-12-01T03:13:22.002Z,9.70
2022-12-01T03:16:09.309Z,8.23
2022-12-01T03:19:02.676Z,11.93
2022-12-01T03:21:41.532Z,10.63
2022-12-01T03:24:14.506Z,13.60
2022-12-01T03:26:44.739Z,13.77
2022-12-01T03:29:20.330Z,14.30
2022-12-01T03:31:58.609Z,12.60
2022-12-01T03:34:25.848Z,17.37
2022-12-01T03:36:59.048Z,15.77
2022-12-01T03:39:34.687Z,18.10
2022-12-01T03:42:24.266Z,15.70
2022-12-01T03:44:55.332Z,17.10
2022-12-01T03:47:30.940Z,15.83
2022-12-01T03:50:00.340Z,20.00
2022-12-01T03:53:05.586Z,17.87
2022-12-01T03:55:38.939Z,17.73
2022-12-01T03:58:18.490Z,19.63
2022-12-01T04:00:49.987Z,21.60
2022-12-01T04:03:18.905Z,20.33
2022-12-01T04:05:46.144Z,20.67
2022-12-01T04:08:13.109Z,18.50
2022-12-01T04:10:40.167Z,19.00
2022-12-01T04:13:12.061Z,18.23
2022-12-01T04:15:39.122Z,19.20
2022-12-01T04:18:06.130Z,17.57
2022-12-01T04:20:33.218Z,16.33
2022-12-01T04:23:00.195Z,12.77
2022-12-01T04:25:27.116Z,15.07
2022-12-01T04:27:54.140Z,16.77
2022-12-01T04:30:20.990Z,19.37
2022-12-01T04:32:47.930Z,14.87
2022-12-01T04:35:14.846Z,15.73
2022-12-01T04:37:41.829Z,15.20
2022-12-01T04:40:09.348Z,17.07
2022-12-01T04:42:36.314Z,13.80
2022-12-01T04:45:03.732Z,16.23
2022-12-01T04:47:30.750Z,16.30
2022-12-01T04:49:57.653Z,8.53
2022-12-01T04:52:24.634Z,16.17
2022-12-01T04:54:51.468Z,17.40
2022-12-01T04:57:18.476Z,18.23
2022-12-01T04:59:45.406Z,18.03
2022-12-01T05:02:12.464Z,16.83
2022-12-01T05:04:41.583Z,16.57
2022-12-01T05:07:09.664Z,19.93
2022-12-01T05:09:36.684Z,14.30
2022-12-01T05:12:03.784Z,16.10
2022-12-01T05:14:30.645Z,21.43
2022-12-01T05:16:58.325Z,12.37
2022-12-01T05:19:43.673Z,20.10
2022-12-01T05:22:10.639Z,20.87
2022-12-01T05:24:37.549Z,20.47
2022-12-01T05:27:04.765Z,25.13
2022-12-01T05:29:33.072Z,18.37
2022-12-01T05:32:00.323Z,21.07
2022-12-01T05:34:27.396Z,19.77
2022-12-01T05:36:54.454Z,19.23
2022-12-01T05:39:21.413Z,20.60
2022-12-01T05:41:48.453Z,29.20
2022-12-01T05:44:15.474Z,20.63
2022-12-01T05:46:42.534Z,25.10
2022-12-01T05:49:09.357Z,21.40
2022-12-01T05:51:36.186Z,22.23
2022-12-01T05:54:03.258Z,20.77
2022-12-01T05:56:30.284Z,25.17
2022-12-01T05:58:57.233Z,21.70
2022-12-01T06:01:25.185Z,21.77
2022-12-01T06:03:53.787Z,21.30
2022-12-01T06:06:21.226Z,27.40
2022-12-01T06:08:48.359Z,20.60
2022-12-01T06:11:15.297Z,22.37
2022-12-01T06:13:42.366Z,22.50
2022-12-01T06:16:09.277Z,20.37
2022-12-01T06:18:38.035Z,22.70
2022-12-01T06:21:06.466Z,14.10
2022-12-01T06:23:34.006Z,21.00
2022-12-01T06:26:01.320Z,20.40
2022-12-01T06:28:28.356Z,17.83
2022-12-01T06:30:59.477Z,21.80
2022-12-01T06:33:30.354Z,13.80
2022-12-01T06:36:02.560Z,21.43
2022-12-01T06:38:34.726Z,22.70
2022-12-01T06:41:02.108Z,19.70
2022-12-01T06:43:29.834Z,23.20
2022-12-01T06:46:01.534Z,26.63
2022-12-01T06:48:29.696Z,23.20
2022-12-01T06:51:01.172Z,19.33
2022-12-01T06:53:28.973Z,21.17
2022-12-01T06:56:04.333Z,35.93
2022-12-01T06:58:31.949Z,23.00
2022-12-01T07:00:59.356Z,20.27
2022-12-01T07:03:26.831Z,21.30
2022-12-01T07:05:58.863Z,19.70
2022-12-01T07:08:30.469Z,24.27
2022-12-01T07:11:02.712Z,22.30
2022-12-01T07:13:33.424Z,20.40
2022-12-01T07:16:05.886Z,20.07
2022-12-01T07:18:33.439Z,27.73
2022-12-01T07:21:01.892Z,19.77
2022-12-01T07:23:29.353Z,19.30
2022-12-01T07:26:06.039Z,18.30
2022-12-01T07:28:33.632Z,22.37
2022-12-01T07:31:08.019Z,21.10
2022-12-01T07:33:35.436Z,20.80
2022-12-01T07:36:03.695Z,22.90
2022-12-01T07:38:31.937Z,19.80
2022-12-01T07:41:06.795Z,21.03
2022-12-01T07:43:34.610Z,20.60
2022-12-01T07:46:05.788Z,20.00
2022-12-01T07:48:32.928Z,19.87
2022-12-01T07:50:59.944Z,19.07
2022-12-01T07:53:26.972Z,19.23
2022-12-01T07:55:54.022Z,18.60
2022-12-01T07:58:21.125Z,18.73
2022-12-01T08:00:48.039Z,19.63
2022-12-01T08:03:15.349Z,17.20
2022-12-01T08:05:42.296Z,19.57
2022-12-01T08:08:09.527Z,17.97
2022-12-01T08:10:36.626Z,15.87
2022-12-01T08:13:04.299Z,17.47
2022-12-01T08:15:31.279Z,16.90
2022-12-01T08:18:00.909Z,23.37
2022-12-01T08:20:27.892Z,21.13
2022-12-01T08:22:55.128Z,19.87
2022-12-01T08:25:22.173Z,19.57
2022-12-01T08:27:49.126Z,18.70
2022-12-01T08:30:16.171Z,18.60
2022-12-01T08:32:43.090Z,15.77
2022-12-01T08:35:10.260Z,12.03
2022-12-01T08:37:37.227Z,20.30
2022-12-01T08:40:04.757Z,17.67
2022-12-01T08:42:31.695Z,20.30
2022-12-01T08:44:58.771Z,24.47
2022-12-01T08:47:28.860Z,7.53
2022-12-01T08:49:56.077Z,18.27
2022-12-01T08:52:23.132Z,22.07
2022-12-01T08:54:50.181Z,20.37
2022-12-01T08:57:17.689Z,24.53
2022-12-01T08:59:44.634Z,25.83
2022-12-01T09:02:22.436Z,23.30
2022-12-01T09:04:52.276Z,18.63
2022-12-01T09:07:26.007Z,17.73
2022-12-01T09:09:53.673Z,15.50
2022-12-01T09:12:20.759Z,10.20
2022-12-01T09:14:49.659Z,14.93
2022-12-01T09:17:17.798Z,22.10
2022-12-01T09:19:45.018Z,16.43
2022-12-01T09:22:12.569Z,23.67
2022-12-01T09:24:39.606Z,17.03
2022-12-01T09:27:06.774Z,11.97
2022-12-01T09:29:33.670Z,24.83
2022-12-01T09:32:00.980Z,27.50
2022-12-01T09:34:29.136Z,21.23
2022-12-01T09:37:00.419Z,24.67
2022-12-01T09:39:28.214Z,20.13
2022-12-01T09:42:09.360Z,28.30
2022-12-01T09:44:39.572Z,23.57
2022-12-01T09:47:19.384Z,20.37
2022-12-01T09:49:49.941Z,17.63
2022-12-01T09:52:19.825Z,27.67
2022-12-01T09:54:50.274Z,21.27
2022-12-01T09:57:33.678Z,17.57
2022-12-01T10:00:04.996Z,12.47
2022-12-01T10:02:42.716Z,22.10
2022-12-01T10:05:18.390Z,23.03
2022-12-01T10:08:02.421Z,24.17
2022-12-01T10:10:40.526Z,18.63
2022-12-01T10:13:25.308Z,23.27
2022-12-01T10:16:18.337Z,18.03
2022-12-01T10:19:15.283Z,25.03
2022-12-01T10:22:19.678Z,13.50
2022-12-01T10:25:08.044Z,21.20
2022-12-01T10:27:56.491Z,24.60
2022-12-01T10:30:24.479Z,19.73
2022-12-01T10:32:52.864Z,23.57
2022-12-01T10:35:23.796Z,24.57
2022-12-01T10:37:59.261Z,19.37
2022-12-01T10:40:27.907Z,15.83
2022-12-01T10:42:55.088Z,10.60
2022-12-01T10:45:29.434Z,21.40
2022-12-01T10:48:08.820Z,19.67
2022-12-01T10:50:36.363Z,12.37
2022-12-01T10:53:04.122Z,22.67
2022-12-01T10:55:43.421Z,18.90
2022-12-01T10:58:17.036Z,20.63
2022-12-01T11:01:01.901Z,12.03
2022-12-01T11:03:35.480Z,13.00
2022-12-01T11:06:06.133Z,22.10
2022-12-01T11:08:50.491Z,14.77
2022-12-01T11:11:28.255Z,10.77
2022-12-01T11:13:56.849Z,23.63
2022-12-01T11:16:43.303Z,17.07
2022-12-01T11:19:34.064Z,23.20
2022-12-01T11:22:12.994Z,19.27
2022-12-01T11:24:47.504Z,16.93
2022-12-01T11:27:18.871Z,12.63
2022-12-01T11:29:49.211Z,22.10
2022-12-01T11:32:27.491Z,18.90
2022-12-01T11:34:58.729Z,10.17
2022-12-01T11:37:50.459Z,17.23
2022-12-01T11:40:33.006Z,9.87
2022-12-01T11:43:02.821Z,12.90
2022-12-01T11:45:37.531Z,25.97
2022-12-01T11:48:23.099Z,17.30
2022-12-01T11:51:08.142Z,14.03
2022-12-01T11:53:38.171Z,10.27
2022-12-01T11:56:34.704Z,20.37
2022-12-01T11:59:05.702Z,13.63
2022-12-01T12:01:52.947Z,25.10
2022-12-01T12:04:38.379Z,17.60
2022-12-01T12:07:21.535Z,21.63
2022-12-01T12:09:56.188Z,7.17
2022-12-01T12:12:51.169Z,17.47
2022-12-01T12:15:42.439Z,18.80
2022-12-01T12:18:33.596Z,20.97
2022-12-01T12:21:06.685Z,17.40
2022-12-01T12:23:55.322Z,26.30
2022-12-01T12:26:27.589Z,16.93
2022-12-01T12:29:14.064Z,8.53
2022-12-01T12:32:06.093Z,15.60
2022-12-01T12:34:45.807Z,21.30
2022-12-01T12:37:24.792Z,17.03
2022-12-01T12:39:57.928Z,19.73
2022-12-01T12:42:52.059Z,18.47
2022-12-01T12:45:59.514Z,21.57
2022-12-01T12:49:18.519Z,17.13
2022-12-01T12:52:08.364Z,17.77
2022-12-01T12:54:57.681Z,19.07
2022-12-01T12:57:27.502Z,11.60
2022-12-01T13:00:15.687Z,21.83
2022-12-01T13:03:06.242Z,16.53
2022-12-01T13:05:49.342Z,14.47
2022-12-01T13:08:31.502Z,14.83
2022-12-01T13:11:28.555Z,8.67
2022-12-01T13:14:13.628Z,10.20
2022-12-01T13:16:44.175Z,9.87
2022-12-01T13:19:33.572Z,15.60
2022-12-01T13:22:01.405Z,7.87
2022-12-01T13:24:31.259Z,18.77
2022-12-01T13:27:03.233Z,17.10
2022-12-01T13:29:44.040Z,13.00
2022-12-01T13:32:28.472Z,10.77
2022-12-01T13:34:55.623Z,12.10
2022-12-01T13:37:32.151Z,18.23
2022-12-01T13:40:24.568Z,15.33
2022-12-01T13:43:10.756Z,20.07
2022-12-01T13:45:40.058Z,17.27
2022-12-01T13:48:26.410Z,18.70
2022-12-01T13:50:55.327Z,15.30
2022-12-01T13:53:36.976Z,11.40
2022-12-01T13:56:03.938Z,14.80
2022-12-01T13:58:34.023Z,19.23
2022-12-01T14:01:19.991Z,22.83
2022-12-01T14:04:03.257Z,19.70
2022-12-01T14:06:38.425Z,18.00
2022-12-01T14:09:14.169Z,19.93
2022-12-01T14:11:54.469Z,20.87
2022-12-01T14:14:26.215Z,46.88
2022-12-01T14:16:58.480Z,10.80
2022-12-01T14:19:44.254Z,24.93
2022-12-01T14:22:33.576Z,23.13
2022-12-01T14:25:01.593Z,16.60
2022-12-01T14:27:42.982Z,21.50
2022-12-01T14:30:42.113Z,17.20
2022-12-01T14:33:45.166Z,19.00
2022-12-01T14:36:25.210Z,8.90
2022-12-01T14:38:58.327Z,20.57
2022-12-01T14:41:46.135Z,16.30
2022-12-01T14:44:29.456Z,19.43
2022-12-01T14:47:18.066Z,18.83
2022-12-01T14:50:13.954Z,30.80
2022-12-01T14:52:53.280Z,19.73
2022-12-01T14:55:43.580Z,7.10
2022-12-01T14:58:20.086Z,16.60
2022-12-01T15:01:13.921Z,11.30
2022-12-01T15:03:51.418Z,25.40
2022-12-01T15:06:21.224Z,27.53
2022-12-01T15:12:07.588Z,13.40
2022-12-01T15:14:46.012Z,25.73
2022-12-01T15:17:34.712Z,22.13
2022-12-01T15:20:01.931Z,22.63
2022-12-01T15:22:33.874Z,26.50
2022-12-01T15:25:33.672Z,19.43
2022-12-01T15:28:13.494Z,19.57
2022-12-01T15:30:42.798Z,14.30
2022-12-01T15:33:36.798Z,20.30
2022-12-01T15:36:06.698Z,17.50
2022-12-01T15:38:37.817Z,25.67
2022-12-01T15:41:28.623Z,28.07
2022-12-01T15:43:59.233Z,16.97
2022-12-01T15:46:32.196Z,21.17
2022-12-01T15:49:30.264Z,18.60
2022-12-01T15:52:10.224Z,15.33
2022-12-01T15:54:38.226Z,24.37
2022-12-01T15:57:06.495Z,11.17
2022-12-01T15:59:41.085Z,12.77
2022-12-01T16:02:28.192Z,19.33
2022-12-01T16:05:17.282Z,26.20
2022-12-01T16:10:37.473Z,18.97
2022-12-01T16:13:41.882Z,14.83
2022-12-01T16:16:42.080Z,12.20
2022-12-01T16:19:09.169Z,21.63
2022-12-01T16:21:53.141Z,23.93
2022-12-01T16:24:32.979Z,19.27
2022-12-01T16:27:00.015Z,15.73
2022-12-01T16:29:29.162Z,25.23
2022-12-01T16:34:49.056Z,18.90
2022-12-01T16:37:16.074Z,18.90
2022-12-01T16:39:42.973Z,29.60
2022-12-01T16:42:15.648Z,24.57
2022-12-01T16:44:44.806Z,10.83
2022-12-01T16:47:20.504Z,24.17
2022-12-01T16:49:47.680Z,28.43
2022-12-01T16:55:02.056Z,16.10
2022-12-01T16:57:29.054Z,25.67
2022-12-01T16:59:55.946Z,10.20
2022-12-01T17:02:22.939Z,18.30
2022-12-01T17:04:50.006Z,24.87
2022-12-01T17:07:17.317Z,25.43
2022-12-01T17:09:44.292Z,19.63
2022-12-01T17:12:11.255Z,31.00
2022-12-01T17:14:38.137Z,27.10
2022-12-01T17:17:05.131Z,13.67
2022-12-01T17:19:32.015Z,25.27
2022-12-01T17:21:59.176Z,30.00
2022-12-01T17:24:26.115Z,18.87
2022-12-01T17:26:53.118Z,27.43
2022-12-01T17:29:20.088Z,31.47
2022-12-01T17:31:47.175Z,26.33
2022-12-01T17:34:14.408Z,31.43
2022-12-01T17:36:42.624Z,34.23
2022-12-01T17:39:09.835Z,30.33
2022-12-01T17:41:36.882Z,29.33
2022-12-01T17:44:05.497Z,31.93
2022-12-01T17:46:32.965Z,31.67
2022-12-01T17:49:00.496Z,28.13
2022-12-01T17:51:27.463Z,30.70
2022-12-01T17:53:54.881Z,24.73
2022-12-01T17:56:21.968Z,23.40
2022-12-01T17:58:50.582Z,10.37
2022-12-01T18:01:19.661Z,25.20
2022-12-01T18:03:47.554Z,15.40
2022-12-01T18:06:15.782Z,20.53
2022-12-01T18:08:43.230Z,23.37
2022-12-01T18:11:14.036Z,27.17
2022-12-01T18:13:47.453Z,10.03
2022-12-01T18:16:26.626Z,29.67
2022-12-01T18:18:54.372Z,25.37
2022-12-01T18:21:23.609Z,31.53
2022-12-01T18:23:51.538Z,29.37
2022-12-01T18:26:20.564Z,26.83
2022-12-01T18:28:52.828Z,21.00
2022-12-01T18:31:19.885Z,27.43
2022-12-01T18:33:46.885Z,21.80
2022-12-01T18:36:17.298Z,29.67
2022-12-01T18:38:44.477Z,16.37
2022-12-01T18:41:11.477Z,31.40
2022-12-01T18:43:38.465Z,37.37
2022-12-01T18:46:06.561Z,36.90
2022-12-01T18:48:35.050Z,32.10
2022-12-01T18:51:04.041Z,35.90
2022-12-01T18:53:31.795Z,32.80
2022-12-01T18:56:07.655Z,35.80
2022-12-01T18:58:35.141Z,32.07
2022-12-01T19:01:02.989Z,36.30
2022-12-01T19:03:31.726Z,25.50
2022-12-01T19:05:59.491Z,35.13
2022-12-01T19:08:26.470Z,26.30
2022-12-01T19:11:01.192Z,22.60
2022-12-01T19:13:29.462Z,26.17
2022-12-01T19:15:56.809Z,29.33
2022-12-01T19:18:23.950Z,33.37
2022-12-01T19:20:50.970Z,31.47
2022-12-01T19:23:18.085Z,30.23
2022-12-01T19:25:44.955Z,34.67
2022-12-01T19:28:11.933Z,34.43
2022-12-01T19:30:40.999Z,36.63
2022-12-01T19:33:11.506Z,27.20
2022-12-01T19:35:38.456Z,34.03
2022-12-01T19:38:05.443Z,30.93
2022-12-01T19:40:32.478Z,28.70
2022-12-01T19:43:00.565Z,30.23
2022-12-01T19:45:30.129Z,16.27
2022-12-01T19:47:57.590Z,15.30
2022-12-01T19:50:24.536Z,24.90
2022-12-01T19:52:51.619Z,30.93
2022-12-01T19:55:18.684Z,33.97
2022-12-01T19:57:49.578Z,28.30
2022-12-01T20:00:16.891Z,30.33
2022-12-01T20:02:43.888Z,16.67
2022-12-01T20:05:10.854Z,24.63
2022-12-01T20:07:37.993Z,20.80
2022-12-01T20:10:06.253Z,22.60
2022-12-01T20:12:35.330Z,23.50
2022-12-01T20:15:06.204Z,20.57
2022-12-01T20:17:36.243Z,16.50
2022-12-01T20:20:04.226Z,21.23
2022-12-01T20:22:35.593Z,22.40
2022-12-01T20:25:02.579Z,29.27
2022-12-01T20:27:29.818Z,37.10
2022-12-01T20:29:56.883Z,32.07
2022-12-01T20:32:24.320Z,38.80
2022-12-01T20:34:51.782Z,28.40
2022-12-01T20:37:18.912Z,46.97
2022-12-01T20:39:46.871Z,57.67
2022-12-01T20:42:13.988Z,46.77
2022-12-01T20:44:41.059Z,35.27
2022-12-01T20:47:08.057Z,22.83
2022-12-01T20:49:35.030Z,41.67
2022-12-01T20:52:01.920Z,19.97
2022-12-01T20:54:29.996Z,36.43
2022-12-01T20:56:58.348Z,37.67
2022-12-01T20:59:25.364Z,48.27
2022-12-01T21:01:52.339Z,46.37
2022-12-01T21:04:19.429Z,47.37
2022-12-01T21:06:46.589Z,45.03
2022-12-01T21:09:14.928Z,51.17
2022-12-01T21:12:10.006Z,57.40
2022-12-01T21:14:57.562Z,61.73
2022-12-01T21:17:39.181Z,55.77
2022-12-01T21:20:31.413Z,64.70
2022-12-01T21:23:02.623Z,61.13
2022-12-01T21:25:29.560Z,102.13
2022-12-01T21:28:03.673Z,60.63
2022-12-01T21:30:30.735Z,59.57
2022-12-01T21:33:33.790Z,64.10
2022-12-01T21:36:03.066Z,72.60
2022-12-01T21:38:32.105Z,51.90
2022-12-01T21:40:58.997Z,57.93
2022-12-01T21:43:26.109Z,53.30
2022-12-01T21:46:00.319Z,58.73
2022-12-01T21:48:35.128Z,51.57
2022-12-01T21:51:07.482Z,34.90
2022-12-01T21:53:38.450Z,69.53
2022-12-01T21:56:05.633Z,69.77
2022-12-01T21:58:36.383Z,102.10
2022-12-01T22:01:16.726Z,66.37
2022-12-01T22:03:45.733Z,108.37
2022-12-01T22:06:29.696Z,201.53
2022-12-01T22:09:01.430Z,47.00
2022-12-01T22:11:30.313Z,46.67
2022-12-01T22:14:08.146Z,38.77
2022-12-01T22:17:00.917Z,44.63
2022-12-01T22:19:39.232Z,92.30
2022-12-01T22:22:09.424Z,62.67
2022-12-01T22:24:51.652Z,56.23
2022-12-01T22:27:28.226Z,44.80
2022-12-01T22:30:03.202Z,43.83
2022-12-01T22:32:33.238Z,65.70
2022-12-01T22:35:16.253Z,40.17
2022-12-01T22:37:48.817Z,40.10
2022-12-01T22:40:39.024Z,43.80
2022-12-01T22:43:18.270Z,58.53
2022-12-01T22:45:47.783Z,44.60
2022-12-01T22:48:41.617Z,54.83
2022-12-01T22:51:17.902Z,70.27
2022-12-01T22:53:46.224Z,65.67
2022-12-01T22:56:39.404Z,53.60
2022-12-01T22:59:21.727Z,44.87
2022-12-01T23:01:57.412Z,52.77
2022-12-01T23:04:37.891Z,52.07
2022-12-01T23:07:27.250Z,52.10
2022-12-01T23:09:56.838Z,58.93
2022-12-01T23:12:32.499Z,46.77
2022-12-01T23:15:23.105Z,49.77
2022-12-01T23:17:50.954Z,48.50
2022-12-01T23:20:20.929Z,48.67
2022-12-01T23:22:48.462Z,45.27
2022-12-01T23:25:18.720Z,35.37
2022-12-01T23:27:48.707Z,41.83
2022-12-01T23:30:17.939Z,43.70
2022-12-01T23:32:48.077Z,48.90
2022-12-01T23:35:17.584Z,41.57
2022-12-01T23:37:47.734Z,42.93
2022-12-01T23:40:23.258Z,42.97
2022-12-01T23:42:51.095Z,42.20
2022-12-01T23:45:24.344Z,46.13
2022-12-01T23:47:53.278Z,62.47
2022-12-01T23:50:23.209Z,70.23
2022-12-01T23:52:50.206Z,67.20
2022-12-01T23:55:28.770Z,52.57
2022-12-01T23:57:56.660Z,111.03
